»·PEaware :: N8213L KPSC-KGEG

N8213L :: KPSC-KGEG

FLIGHT INFORMATION

Flight Status: Arrived
Operator: Privately registered:
United States
More flights under this callsign
Pilot: Colin A. (16071)
Aircraft: CESSNA 172 SKYHAWK
(C172)
More flights by this aircraft type
Origin: KPSC Tri-Cities
United States
Destination: KGEG Spokane Intl
United States
More flights between these airports :: More routes between these airports
Route: +PSC V204 GEG
File this flight plan on PilotEdge
Remarks:
Altitude:
(Current/Filed)
5,000ft
Speed:
(Current/Filed)
120kts
Departed: 25-Apr-18 07:49 AM
Arrived: 25-Apr-18 08:57 AM
Distance/Time
Traveled:
105nm/1:08
Distance/Time
To Go:
Arrived

Flight Plot

Page will automatically refresh every two minutes.

Flight plan parsing failed; only flown route is shown


Map Options




Map Legend


Flown Route
Filed Route
Departure Airport
Arrival Airport
Navaid (VOR, NDB)
Fix

Horizontal Profiles

Position Reports

Time Latitude Longitude Heading Altitude Ground
Speed
25-Apr-18 07:33 46.266389 -119.106291 251 414ft 0kts
25-Apr-18 07:34 46.266389 -119.106291 251 414ft 0kts
25-Apr-18 07:35 46.266389 -119.106291 251 414ft 0kts
25-Apr-18 07:36 46.266389 -119.106291 251 414ft 0kts
25-Apr-18 07:37 46.266389 -119.106291 251 414ft 0kts
25-Apr-18 07:38 46.266389 -119.106291 251 414ft 0kts
25-Apr-18 07:39 46.266389 -119.106291 251 414ft 0kts
25-Apr-18 07:40 46.266389 -119.106290 251 414ft 0kts
25-Apr-18 07:41 46.266389 -119.106290 251 414ft 0kts
25-Apr-18 07:42 46.265868 -119.107742 260 411ft 7kts
25-Apr-18 07:43 46.267884 -119.108619 355 410ft 12kts
25-Apr-18 07:44 46.269619 -119.110474 312 409ft 0kts
25-Apr-18 07:45 46.269619 -119.110474 312 409ft 0kts
25-Apr-18 07:46 46.269619 -119.110474 312 409ft 0kts
25-Apr-18 07:47 46.270368 -119.111870 276 407ft 10kts
25-Apr-18 07:48 46.258161 -119.129943 226 1098ft 82kts
25-Apr-18 07:49 46.241830 -119.153011 223 2170ft 86kts
25-Apr-18 07:50 46.223352 -119.178054 222 3075ft 94kts
25-Apr-18 07:51 46.223321 -119.206611 350 3948ft 95kts
25-Apr-18 07:52 46.241721 -119.183646 56 4832ft 91kts
25-Apr-18 07:53 46.257940 -119.146448 58 4999ft 120kts
25-Apr-18 07:54 46.278570 -119.109676 35 5000ft 120kts
25-Apr-18 07:55 46.306076 -119.081061 35 4999ft 122kts
25-Apr-18 07:56 46.333777 -119.052528 35 4999ft 122kts
25-Apr-18 07:57 46.361579 -119.023938 35 4999ft 122kts
25-Apr-18 07:58 46.389258 -118.995460 35 4999ft 122kts
25-Apr-18 07:59 46.417065 -118.966819 35 4999ft 122kts
25-Apr-18 08:00 46.444803 -118.938216 35 4999ft 122kts
25-Apr-18 08:01 46.472487 -118.909632 35 4999ft 122kts
25-Apr-18 08:02 46.500281 -118.880897 35 4999ft 122kts
25-Apr-18 08:03 46.527993 -118.852212 35 4999ft 122kts
25-Apr-18 08:04 46.555668 -118.823530 35 4999ft 122kts
25-Apr-18 08:05 46.583395 -118.794756 35 4999ft 122kts
25-Apr-18 08:06 46.611075 -118.765995 35 4999ft 122kts
25-Apr-18 08:07 46.638742 -118.737215 35 4999ft 122kts
25-Apr-18 08:08 46.666514 -118.708291 35 4999ft 122kts
25-Apr-18 08:09 46.694263 -118.679359 35 4999ft 123kts
25-Apr-18 08:10 46.721966 -118.650432 35 4999ft 123kts
25-Apr-18 08:11 46.749764 -118.621369 35 4999ft 123kts
25-Apr-18 08:12 46.777500 -118.592332 35 4999ft 123kts
25-Apr-18 08:13 46.805274 -118.563218 35 4999ft 123kts
25-Apr-18 08:14 46.833044 -118.534070 35 4999ft 123kts
25-Apr-18 08:15 46.860803 -118.504896 35 4999ft 123kts
25-Apr-18 08:16 46.888557 -118.475689 35 4999ft 123kts
25-Apr-18 08:17 46.916194 -118.446438 37 4999ft 123kts
25-Apr-18 08:18 46.942303 -118.414110 39 4999ft 123kts
25-Apr-18 08:19 46.968364 -118.381659 39 4999ft 123kts
25-Apr-18 08:20 46.994050 -118.349645 40 4999ft 123kts
25-Apr-18 08:21 47.020072 -118.317178 40 4999ft 123kts
25-Apr-18 08:22 47.046151 -118.284597 40 4999ft 123kts
25-Apr-18 08:23 47.072173 -118.252041 40 4999ft 123kts
25-Apr-18 08:24 47.098122 -118.219532 40 4999ft 123kts
25-Apr-18 08:25 47.124060 -118.186993 40 4999ft 123kts
25-Apr-18 08:26 47.150077 -118.154312 40 4999ft 123kts
25-Apr-18 08:27 47.176078 -118.121607 40 4999ft 123kts
25-Apr-18 08:28 47.202016 -118.088940 40 4999ft 123kts
25-Apr-18 08:29 47.228010 -118.056158 40 4999ft 123kts
25-Apr-18 08:30 47.252044 -118.020793 53 4999ft 123kts
25-Apr-18 08:31 47.272090 -117.979996 53 4999ft 123kts
25-Apr-18 08:32 47.292129 -117.939201 53 4999ft 123kts
25-Apr-18 08:33 47.312217 -117.898302 53 4999ft 123kts
25-Apr-18 08:34 47.332264 -117.857481 53 4999ft 123kts
25-Apr-18 08:35 47.352267 -117.816747 53 4999ft 123kts
25-Apr-18 08:36 47.372334 -117.775879 53 4999ft 123kts
25-Apr-18 08:37 47.392466 -117.734877 53 4999ft 123kts
25-Apr-18 08:38 47.412500 -117.694069 53 4999ft 123kts
25-Apr-18 08:39 47.432626 -117.653071 53 4999ft 123kts
25-Apr-18 08:40 47.455518 -117.615811 43 4999ft 123kts
25-Apr-18 08:41 47.480083 -117.580692 43 4999ft 123kts
25-Apr-18 08:42 47.504720 -117.545461 43 4999ft 123kts
25-Apr-18 08:43 47.529265 -117.510350 43 4999ft 123kts
25-Apr-18 08:44 47.553870 -117.475145 43 4999ft 123kts
25-Apr-18 08:45 47.578492 -117.439907 43 4999ft 123kts
25-Apr-18 08:46 47.605691 -117.409421 33 4999ft 123kts
25-Apr-18 08:47 47.634095 -117.381006 33 4999ft 123kts
25-Apr-18 08:48 47.662426 -117.352652 33 4999ft 123kts
25-Apr-18 08:49 47.690728 -117.324311 33 4999ft 123kts
25-Apr-18 08:50 47.716144 -117.342764 300 4419ft 120kts
25-Apr-18 08:51 47.711355 -117.390162 254 3999ft 113kts
25-Apr-18 08:52 47.693307 -117.423749 225 3991ft 99kts
25-Apr-18 08:53 47.673883 -117.452544 227 3655ft 96kts
25-Apr-18 08:54 47.656971 -117.480469 225 3025ft 85kts
25-Apr-18 08:55 47.640316 -117.505018 224 2653ft 86kts
25-Apr-18 08:56 47.627282 -117.524073 222 2343ft 29kts
25-Apr-18 08:57 47.626448 -117.523310 132 2343ft 0kts
25-Apr-18 08:58 47.624334 -117.522805 105 2348ft 2kts

Navigation Log

Ident Type
Flight plan parsing failed, navigation log unavailable